Thunder radar more information blitzortung!


Radar de pluja more information rain snow radar


Visita la nostra xarxa de llocs de meteo:

Template documentation
and downloads

And another site



No particular awareness of the weather is required.    There are no Weather-warnings

Pagina Historial Weather Underground text

Diari Resum May 10, 2017 Unitats:  Imperial    Mètric   Tant
« Previous Dia
SegĂźent Dia »
Diari Setmana Mensual Anual Personalitzada
  Maxima: Minima: Media:
Temperatura: TemperatureC °F 12.7 °F 17.8 °F
Punt de rosada: DewpointC °F 9.0 °F 11 °F
Humitat: Humidity % 49 % 65 %
Wind Speed: WindSpeedKMH mph 0.0 mph 9.3 mph
RĂ fegues de vent: WindSpeedGustKMH mph - -
Vent:- - East
Pression baro: PressurehPa in 1001.9 in -
Precipitacions: 0.0 in    
Historical Graphs
 
 
Dades de taula per May 10, 2017
Temps Temperatura Punt de rosada Pression baro Vent Wind Speed RĂ fegues de vent Humitat Rainfall Rate (Hourly)
TemperatureC °F DewpointC °F PressurehPa in Calm     Humidity % HourlyPrecipMM in
00:00 13.5 °F 10.3 °F 1006.0 in NE 1.6 mph 3.2 mph 81 % 0.0 in
00:04 15.5 °F 11.3 °F 1009.0 in ENE 4.2 mph 4.2 mph 76 % 0.0 in
00:10 13.4 °F 10.2 °F 1006.0 in NE 1.6 mph 3.2 mph 81 % 0.0 in
00:20 13.3 °F 10.1 °F 1006.0 in Calm   1.6 mph 81 % 0.0 in
00:30 13.2 °F 10.0 °F 1006.0 in Calm   3.2 mph 81 % 0.0 in
00:40 13.1 °F 9.9 °F 1006.0 in WNW 1.6 mph 3.2 mph 81 % 0.0 in
00:50 13.0 °F 9.8 °F 1006.0 in Calm   4.8 mph 81 % 0.0 in
01:00 12.9 °F 9.7 °F 1006.0 in Calm   3.2 mph 81 % 0.0 in
01:10 13.0 °F 9.8 °F 1006.0 in Calm   1.6 mph 81 % 0.0 in
01:20 13.0 °F 9.8 °F 1006.0 in Calm   1.6 mph 81 % 0.0 in
01:30 13.0 °F 10.0 °F 1006.0 in Calm   3.2 mph 82 % 0.0 in
01:40 12.7 °F 9.7 °F 1006.0 in Calm   1.6 mph 82 % 0.0 in
01:50 12.8 °F 9.8 °F 1006.0 in Calm     82 % 0.0 in
02:00 12.9 °F 9.9 °F 1006.0 in NNW 3.2 mph 3.2 mph 82 % 0.0 in
02:10 12.8 °F 9.8 °F 1006.0 in NNE 1.6 mph 4.8 mph 82 % 0.0 in
02:20 12.8 °F 9.8 °F 1006.0 in Calm   3.2 mph 82 % 0.0 in
02:30 13.0 °F 9.6 °F 1006.0 in NNE 1.6 mph 6.4 mph 80 % 0.0 in
02:40 13.1 °F 9.6 °F 1005.0 in NNE 4.8 mph 6.4 mph 79 % 0.0 in
02:50 13.2 °F 9.4 °F 1006.0 in NNE 4.8 mph 9.7 mph 78 % 0.0 in
03:00 13.4 °F 9.4 °F 1006.0 in NE 4.8 mph 6.4 mph 77 % 0.0 in
03:10 13.7 °F 9.6 °F 1006.0 in NE 4.8 mph 6.4 mph 76 % 0.0 in
03:20 13.8 °F 9.7 °F 1007.0 in NNE 3.2 mph 6.4 mph 76 % 0.0 in
03:30 13.9 °F 9.6 °F 1007.0 in NNE 4.8 mph 6.4 mph 75 % 0.0 in
03:40 14.1 °F 9.6 °F 1006.0 in NNE 1.6 mph 8.0 mph 74 % 0.0 in
03:50 14.2 °F 9.4 °F 1006.0 in NNE 1.6 mph 6.4 mph 73 % 0.0 in
04:00 14.3 °F 9.3 °F 1006.0 in NE 4.8 mph 8.0 mph 72 % 0.0 in
04:10 14.4 °F 9.0 °F 1007.0 in NNE 8.0 mph 9.7 mph 70 % 0.0 in
04:20 14.7 °F 9.3 °F 1006.0 in NE 3.2 mph 4.8 mph 70 % 0.0 in
04:30 14.8 °F 9.4 °F 1006.0 in NE 3.2 mph 9.7 mph 70 % 0.0 in
04:40 15.1 °F 9.4 °F 1006.0 in NE 4.8 mph 4.8 mph 69 % 0.0 in
04:50 15.4 °F 9.5 °F 1007.0 in NNE 3.2 mph 6.4 mph 68 % 0.0 in
05:00 15.6 °F 9.5 °F 1007.0 in NNE 4.8 mph 6.4 mph 67 % 0.0 in
05:10 15.6 °F 9.3 °F 1006.0 in NNE 4.8 mph 9.7 mph 66 % 0.0 in
05:20 15.9 °F 9.6 °F 1007.0 in NE 1.6 mph 6.4 mph 66 % 0.0 in
10:30 16.3 °F 9.7 °F 1007.0 in North 3.7 mph 3.7 mph 65 % 0.0 in
10:35 16.4 °F 9.6 °F 1007.0 in ENE 5.6 mph 5.6 mph 64 % 0.0 in
10:40 16.5 °F 9.7 °F 1007.0 in NNE 4.2 mph 4.2 mph 64 % 0.0 in
10:45 16.6 °F 9.5 °F 1007.0 in NNW 3.5 mph 3.5 mph 63 % 0.0 in
10:50 16.8 °F 9.9 °F 1007.0 in NNE 3.7 mph 3.7 mph 64 % 0.0 in
10:55 16.7 °F 9.6 °F 1007.0 in NNE 4.2 mph 4.2 mph 63 % 0.0 in
11:00 16.8 °F 9.9 °F 1007.0 in NE 3.7 mph 3.7 mph 64 % 0.0 in
11:05 16.9 °F 9.8 °F 1007.0 in NE 4.7 mph 4.7 mph 63 % 0.0 in
11:06 16.9 °F 9.8 °F 1007.0 in NE 4.7 mph 4.7 mph 63 % 0.0 in
11:11 16.8 °F 9.5 °F 1006.0 in East 5.6 mph 5.6 mph 62 % 0.0 in
11:16 17.1 °F 9.8 °F 1006.0 in NE 3.9 mph 3.9 mph 62 % 0.0 in
11:21 17.3 °F 9.7 °F 1006.0 in North 1.9 mph 1.9 mph 61 % 0.0 in
11:26 17.5 °F 10.1 °F 1007.0 in Calm     62 % 0.0 in
11:31 17.5 °F 9.7 °F 1007.0 in ENE 5.6 mph 5.6 mph 60 % 0.0 in
11:36 17.6 °F 10.0 °F 1007.0 in East 1.9 mph 1.9 mph 61 % 0.0 in
11:41 17.9 °F 10.3 °F 1007.0 in ENE 2.3 mph 2.6 mph 61 % 0.0 in
11:46 18.2 °F 10.3 °F 1007.0 in NNE 3.5 mph   60 % 0.0 in
11:51 18.6 °F 10.4 °F 1007.0 in ENE 5.6 mph 5.6 mph 59 % 0.0 in
11:56 18.5 °F 10.3 °F 1007.0 in ENE 3.9 mph 3.9 mph 59 % 0.0 in
12:01 19.0 °F 10.6 °F 1007.0 in East 3.7 mph 3.7 mph 58 % 0.0 in
12:06 19.3 °F 10.3 °F 1007.0 in ENE 3.7 mph 3.7 mph 56 % 0.0 in
12:11 19.9 °F 11.1 °F 1006.0 in ENE 5.6 mph 5.6 mph 57 % 0.0 in
12:16 20.2 °F 10.9 °F 1006.0 in ENE 5.8 mph 6.1 mph 55 % 0.0 in
12:21 20.3 °F 10.7 °F 1006.0 in SE 6.4 mph 6.4 mph 54 % 0.0 in
12:26 20.6 °F 10.7 °F 1006.0 in ENE 3.7 mph 3.7 mph 53 % 0.0 in
12:31 20.1 °F 9.7 °F 1006.0 in SE 11.1 mph 11.1 mph 51 % 0.0 in
12:36 20.5 °F 10.3 °F 1006.0 in Calm     52 % 0.0 in
12:41 21.2 °F 10.7 °F 1006.0 in NE 6.9 mph 6.9 mph 51 % 0.0 in
12:46 21.6 °F 11.0 °F 1006.0 in SE 9.0 mph 9.0 mph 51 % 0.0 in
12:51 21.1 °F 10.6 °F 1006.0 in SSE 11.1 mph 11.1 mph 51 % 0.0 in
12:56 21.2 °F 10.9 °F 1006.0 in ESE 6.9 mph 6.9 mph 52 % 0.0 in
13:01 21.2 °F 10.7 °F 1006.0 in East 9.3 mph 9.3 mph 51 % 0.0 in
13:06 21.0 °F 10.5 °F 1006.0 in ENE 9.3 mph 9.3 mph 51 % 0.0 in
13:11 21.1 °F 10.6 °F 1006.0 in East 9.3 mph 9.3 mph 51 % 0.0 in
13:16 21.6 °F 11.0 °F 1006.0 in SE 11.1 mph 11.1 mph 51 % 0.0 in
13:21 21.5 °F 10.6 °F 1006.0 in ESE 13.0 mph 13.0 mph 50 % 0.0 in
13:26 21.5 °F 10.6 °F 1006.0 in ESE 11.4 mph 11.4 mph 50 % 0.0 in
13:31 21.5 °F 10.6 °F 1006.0 in East 7.4 mph 7.4 mph 50 % 0.0 in
13:36 22.1 °F 11.2 °F 1006.0 in NNE 14.8 mph 14.8 mph 50 % 0.0 in
13:41 22.2 °F 11.6 °F 1006.0 in ESE 9.7 mph 9.7 mph 51 % 0.0 in
13:46 21.7 °F 10.5 °F 1006.0 in ENE 16.7 mph 16.7 mph 49 % 0.0 in
13:51 21.6 °F 10.4 °F 1006.0 in ESE 20.4 mph 20.4 mph 49 % 0.0 in
13:56 21.6 °F 10.7 °F 1006.0 in ESE 16.7 mph 16.7 mph 50 % 0.0 in
14:01 22.3 °F 11.7 °F 1006.0 in East 16.1 mph 16.1 mph 51 % 0.0 in
14:06 22.3 °F 11.4 °F 1006.0 in SE 13.0 mph 13.0 mph 50 % 0.0 in
14:11 22.6 °F 11.9 °F 1006.0 in ESE 9.3 mph 9.3 mph 51 % 0.0 in
14:16 21.8 °F 11.2 °F 1006.0 in East 16.7 mph 16.7 mph 51 % 0.0 in
14:21 21.8 °F 11.2 °F 1006.0 in ESE 16.7 mph 16.7 mph 51 % 0.0 in
14:26 21.9 °F 11.3 °F 1005.0 in SE 13.0 mph 13.0 mph 51 % 0.0 in
14:31 21.6 °F 11.0 °F 1005.0 in ESE 16.7 mph 16.7 mph 51 % 0.0 in
14:36 21.3 °F 10.7 °F 1005.0 in ESE 16.7 mph 16.7 mph 51 % 0.0 in
14:41 21.1 °F 10.6 °F 1003.9 in ENE 13.0 mph 13.0 mph 51 % 0.0 in
14:46 21.1 °F 10.8 °F 1003.9 in East 20.4 mph 20.4 mph 52 % 0.0 in
14:51 21.0 °F 10.8 °F 1003.9 in East 16.7 mph 16.7 mph 52 % 0.0 in
14:56 21.4 °F 11.1 °F 1005.0 in ESE 16.7 mph 16.7 mph 52 % 0.0 in
15:01 21.6 °F 11.3 °F 1005.0 in ESE 15.6 mph 15.6 mph 52 % 0.0 in
15:06 21.3 °F 11.1 °F 1005.0 in ESE 14.8 mph 14.8 mph 52 % 0.0 in
15:11 21.2 °F 11.2 °F 1005.0 in ESE 9.3 mph 9.3 mph 53 % 0.0 in
15:16 21.2 °F 10.9 °F 1005.0 in East 14.8 mph 14.8 mph 52 % 0.0 in
15:21 21.3 °F 11.1 °F 1005.0 in East 16.7 mph 16.7 mph 52 % 0.0 in
15:26 21.3 °F 11.3 °F 1003.9 in ESE 14.8 mph 14.8 mph 53 % 0.0 in
15:31 21.2 °F 11.2 °F 1003.9 in ESE 18.5 mph 18.5 mph 53 % 0.0 in
15:36 21.4 °F 11.4 °F 1003.9 in ESE 17.5 mph 17.5 mph 53 % 0.0 in
15:41 21.3 °F 11.6 °F 1003.9 in ESE 13.0 mph 13.0 mph 54 % 0.0 in
15:46 21.2 °F 11.2 °F 1003.9 in ESE 18.5 mph 18.5 mph 53 % 0.0 in
15:51 21.3 °F 11.1 °F 1003.9 in ENE 16.7 mph 16.7 mph 52 % 0.0 in
15:56 21.5 °F 11.2 °F 1003.9 in ENE 16.7 mph 16.7 mph 52 % 0.0 in
16:01 21.3 °F 11.1 °F 1003.9 in SE 16.4 mph 16.4 mph 52 % 0.0 in
16:06 21.3 °F 10.7 °F 1003.9 in ESE 14.8 mph 14.8 mph 51 % 0.0 in
16:11 21.4 °F 11.1 °F 1003.9 in ESE 14.8 mph 14.8 mph 52 % 0.0 in
16:16 21.2 °F 10.9 °F 1003.9 in ENE 18.5 mph 18.5 mph 52 % 0.0 in
16:21 21.0 °F 10.8 °F 1003.9 in ESE 14.8 mph 14.8 mph 52 % 0.0 in
16:26 21.1 °F 11.2 °F 1003.9 in ESE 20.4 mph 20.4 mph 53 % 0.0 in
16:31 21.0 °F 11.1 °F 1003.9 in ESE 16.7 mph 16.7 mph 53 % 0.0 in
16:36 21.2 °F 11.5 °F 1003.9 in ESE 14.8 mph 14.8 mph 54 % 0.0 in
16:41 21.2 °F 11.2 °F 1003.9 in SSE 9.3 mph 9.3 mph 53 % 0.0 in
16:46 21.1 °F 11.4 °F 1003.9 in SE 16.7 mph 16.7 mph 54 % 0.0 in
16:52 21.1 °F 11.4 °F 1003.9 in ESE 20.4 mph 20.4 mph 54 % 0.0 in
16:57 21.0 °F 11.6 °F 1003.9 in ESE 18.5 mph 18.5 mph 55 % 0.0 in
17:02 20.6 °F 11.5 °F 1003.9 in SE 16.7 mph 16.7 mph 56 % 0.0 in
17:07 20.7 °F 11.9 °F 1003.9 in ESE 11.1 mph 11.9 mph 57 % 0.0 in
17:12 20.4 °F 11.6 °F 1003.9 in ESE 16.7 mph 16.7 mph 57 % 0.0 in
17:17 20.3 °F 11.8 °F 1003.9 in SE 14.8 mph 14.8 mph 58 % 0.0 in
17:22 20.2 °F 11.7 °F 1003.9 in ESE 21.2 mph 21.2 mph 58 % 0.0 in
17:27 20.0 °F 11.5 °F 1003.9 in East 16.7 mph 16.7 mph 58 % 0.0 in
17:32 20.0 °F 11.7 °F 1003.9 in East 12.6 mph 12.6 mph 59 % 0.0 in
17:37 20.2 °F 12.2 °F 1003.9 in South 11.1 mph 11.1 mph 60 % 0.0 in
17:42 20.3 °F 12.0 °F 1003.9 in East 16.7 mph 16.7 mph 59 % 0.0 in
17:47 20.1 °F 11.8 °F 1003.9 in ESE 13.0 mph 13.0 mph 59 % 0.0 in
17:52 19.7 °F 11.7 °F 1003.9 in ENE 18.5 mph 18.5 mph 60 % 0.0 in
17:57 19.8 °F 12.1 °F 1002.9 in SSE 10.0 mph 10.0 mph 61 % 0.0 in
18:03 19.9 °F 12.2 °F 1002.9 in ESE 16.7 mph 16.7 mph 61 % 0.0 in
18:08 19.8 °F 12.1 °F 1002.9 in ESE 14.5 mph 14.5 mph 61 % 0.0 in
18:13 19.5 °F 11.8 °F 1003.9 in ENE 13.0 mph 13.0 mph 61 % 0.0 in
18:18 19.6 °F 12.1 °F 1003.9 in ESE 18.5 mph 18.5 mph 62 % 0.0 in
18:23 19.6 °F 12.1 °F 1003.9 in ESE 10.0 mph 10.3 mph 62 % 0.0 in
18:28 19.4 °F 11.9 °F 1003.9 in ESE 16.7 mph 16.7 mph 62 % 0.0 in
18:33 19.3 °F 11.8 °F 1003.9 in ESE 14.8 mph 14.8 mph 62 % 0.0 in
18:38 19.1 °F 11.9 °F 1003.9 in ESE 16.7 mph 16.7 mph 63 % 0.0 in
18:43 19.1 °F 11.9 °F 1003.9 in ENE 13.0 mph 13.0 mph 63 % 0.0 in
18:48 19.1 °F 11.9 °F 1003.9 in East 11.9 mph 14.5 mph 63 % 0.0 in
18:53 18.8 °F 11.8 °F 1003.9 in East 14.8 mph 14.8 mph 64 % 0.0 in
18:58 18.8 °F 12.1 °F 1003.9 in East 7.4 mph 7.4 mph 65 % 0.0 in
19:04 18.9 °F 12.2 °F 1003.9 in East 9.3 mph 9.3 mph 65 % 0.0 in
19:09 18.7 °F 11.7 °F 1003.9 in ESE 18.5 mph 18.5 mph 64 % 0.0 in
19:14 18.7 °F 11.7 °F 1002.9 in SE 14.8 mph 14.8 mph 64 % 0.0 in
19:19 18.7 °F 11.7 °F 1002.9 in ESE 13.0 mph 13.0 mph 64 % 0.0 in
19:20 15.8 °F 12.3 °F 1003.9 in NE 3.2 mph 9.7 mph 80 % 0.0 in
19:25 18.7 °F 11.7 °F 1002.9 in East 4.8 mph 12.9 mph 64 % 0.0 in
19:30 18.4 °F 11.2 °F 1003.9 in East 9.3 mph 9.3 mph 63 % 0.0 in
19:35 18.3 °F 11.4 °F 1003.9 in ENE 3.2 mph 9.7 mph 64 % 0.0 in
19:40 18.2 °F 11.3 °F 1003.9 in NNE 12.2 mph 12.2 mph 64 % 0.0 in
19:45 18.1 °F 11.2 °F 1003.9 in East 9.5 mph 9.5 mph 64 % 0.0 in
19:50 17.9 °F 11.2 °F 1003.9 in ENE 7.4 mph 7.4 mph 65 % 0.0 in
19:55 17.9 °F 11.2 °F 1003.9 in East 8.0 mph 9.7 mph 65 % 0.0 in
20:00 17.8 °F 11.3 °F 1003.9 in ESE 11.1 mph 11.1 mph 66 % 0.0 in
20:05 17.8 °F 11.3 °F 1003.9 in ESE 11.9 mph 11.9 mph 66 % 0.0 in
20:10 17.7 °F 11.3 °F 1003.9 in ENE 18.5 mph 18.5 mph 66 % 0.0 in
20:15 17.6 °F 11.2 °F 1003.9 in ENE 13.0 mph 13.0 mph 66 % 0.0 in
20:20 17.5 °F 11.3 °F 1003.9 in ENE 13.0 mph 13.0 mph 67 % 0.0 in
20:22 17.4 °F 11.2 °F 1003.9 in East 16.7 mph 16.7 mph 67 % 0.0 in
20:27 17.3 °F 11.6 °F 1003.9 in East 14.8 mph 14.8 mph 69 % 0.0 in
20:30 15.5 °F 11.9 °F 1003.9 in NE 4.8 mph 9.7 mph 79 % 0.0 in
20:32 17.2 °F 11.7 °F 1003.9 in NE 13.7 mph 13.7 mph 70 % 0.0 in
20:37 17.1 °F 11.6 °F 1003.9 in ENE 13.0 mph 13.0 mph 70 % 0.0 in
20:40 15.4 °F 11.8 °F 1002.9 in NE 4.8 mph 6.4 mph 79 % 0.0 in
20:42 17.0 °F 11.7 °F 1003.9 in NNE 13.0 mph 13.0 mph 71 % 0.0 in
20:47 17.0 °F 11.7 °F 1003.9 in ENE 13.7 mph 13.7 mph 71 % 0.0 in
20:50 15.4 °F 11.8 °F 1002.9 in NE 8.0 mph 8.0 mph 79 % 0.0 in
20:53 16.9 °F 11.8 °F 1003.9 in NNE 9.5 mph 9.5 mph 72 % 0.0 in
20:58 16.8 °F 11.9 °F 1003.9 in East 11.1 mph 11.1 mph 73 % 0.0 in
21:00 15.3 °F 11.7 °F 1002.9 in NE 4.8 mph 6.4 mph 79 % 0.0 in
21:03 16.7 °F 11.8 °F 1003.9 in North 13.0 mph 13.0 mph 73 % 0.0 in
21:08 16.7 °F 12.1 °F 1003.9 in NNE 9.3 mph 9.3 mph 74 % 0.0 in
21:10 15.2 °F 11.6 °F 1002.9 in NE 8.0 mph 8.0 mph 79 % 0.0 in
21:13 16.6 °F 11.9 °F 1003.9 in East 16.7 mph 16.7 mph 74 % 0.0 in
21:19 16.5 °F 12.1 °F 1003.9 in NE 14.8 mph 14.8 mph 75 % 0.0 in
21:20 15.1 °F 11.5 °F 1001.9 in NE 4.8 mph 9.7 mph 79 % 0.0 in
21:24 16.4 °F 11.9 °F 1003.9 in ENE 11.1 mph 11.1 mph 75 % 0.0 in
21:29 16.4 °F 12.2 °F 1003.9 in East 11.1 mph 11.1 mph 76 % 0.0 in
21:30 15.1 °F 11.5 °F 1001.9 in NE 4.8 mph 6.4 mph 79 % 0.0 in
21:34 16.4 °F 12.2 °F 1003.9 in ENE 7.4 mph 7.4 mph 76 % 0.0 in
21:39 16.4 °F 12.2 °F 1003.9 in ENE 11.4 mph 11.4 mph 76 % 0.0 in
21:40 15.0 °F 11.6 °F 1001.9 in ENE 8.0 mph 9.7 mph 80 % 0.0 in
21:44 16.3 °F 12.3 °F 1003.9 in ENE 9.7 mph 9.7 mph 77 % 0.0 in
21:49 16.3 °F 12.3 °F 1003.9 in ENE 5.6 mph 5.6 mph 77 % 0.0 in
21:50 15.0 °F 11.6 °F 1001.9 in NE 4.8 mph 9.7 mph 80 % 0.0 in
21:54 16.2 °F 12.2 °F 1003.9 in NNE 9.3 mph 9.3 mph 77 % 0.0 in
21:59 16.2 °F 12.3 °F 1003.9 in East 9.3 mph 9.3 mph 78 % 0.0 in
22:00 14.9 °F 11.5 °F 1001.9 in NE 4.8 mph 8.0 mph 80 % 0.0 in
22:04 16.1 °F 12.3 °F 1003.9 in East 7.4 mph 7.4 mph 78 % 0.0 in
22:10 16.1 °F 12.3 °F 1003.9 in NNE 7.6 mph 7.9 mph 78 % 0.0 in
22:15 16.0 °F 12.2 °F 1003.9 in NNE 7.4 mph 7.4 mph 78 % 0.0 in
22:20 16.0 °F 12.2 °F 1003.9 in NNE 9.3 mph 9.3 mph 78 % 0.0 in
22:25 16.0 °F 12.3 °F 1003.9 in ENE 4.8 mph 9.7 mph 79 % 0.0 in
22:30 16.0 °F 12.3 °F 1003.9 in NNE 9.3 mph 9.3 mph 79 % 0.0 in
22:35 16.0 °F 12.3 °F 1003.9 in ENE 4.8 mph 16.1 mph 79 % 0.0 in
22:40 15.9 °F 12.3 °F 1003.9 in NE 11.1 mph 11.1 mph 79 % 0.0 in
22:45 15.9 °F 12.3 °F 1003.9 in NE 7.4 mph 7.4 mph 79 % 0.0 in
22:50 15.9 °F 12.3 °F 1003.9 in NE 4.8 mph 9.7 mph 79 % 0.0 in
22:55 15.9 °F 12.3 °F 1003.9 in NE 8.0 mph 9.7 mph 79 % 0.0 in
23:00 15.9 °F 12.3 °F 1003.9 in NE 3.2 mph 9.7 mph 79 % 0.0 in
23:05 15.9 °F 12.3 °F 1003.9 in ESE 7.4 mph 7.4 mph 79 % 0.0 in
23:10 15.9 °F 12.3 °F 1003.9 in ENE 11.1 mph 11.1 mph 79 % 0.0 in
23:15 15.9 °F 12.3 °F 1003.9 in ESE 10.0 mph 10.0 mph 79 % 0.0 in
23:20 16.0 °F 12.3 °F 1003.9 in ENE 9.3 mph 9.3 mph 79 % 0.0 in
23:26 16.0 °F 12.3 °F 1003.9 in ENE 7.4 mph 7.4 mph 79 % 0.0 in
23:30 14.7 °F 11.4 °F 1001.9 in ENE 4.8 mph 6.4 mph 81 % 0.0 in
23:31 16.0 °F 12.3 °F 1003.9 in NE 10.0 mph 10.0 mph 79 % 0.0 in
23:36 15.9 °F 12.3 °F 1003.9 in NNE 5.6 mph 5.6 mph 79 % 0.0 in
23:40 14.7 °F 11.4 °F 1001.9 in ENE 4.8 mph 6.4 mph 81 % 0.0 in
23:41 15.9 °F 12.3 °F 1003.9 in NNE 9.3 mph 9.3 mph 79 % 0.0 in
23:46 15.8 °F 12.2 °F 1003.9 in NNE 11.1 mph 11.1 mph 79 % 0.0 in
23:50 14.7 °F 11.4 °F 1001.9 in ENE 4.8 mph 6.4 mph 81 % 0.0 in
23:51 15.8 °F 12.2 °F 1003.9 in NNE 6.4 mph 6.4 mph 79 % 0.0 in
23:57 15.8 °F 12.2 °F 1003.9 in East 7.6 mph 7.6 mph 79 % 0.0 in
Meteo Sesrovires
Elogis d' Weather Underground - 2 mb

Guio original per  Jim McMurry - jmcmurry@mwt.net Adaptat per a la plantilla per  Wim van der Kuil - Leuven-Template.eu

Trobareu la nostra informacio del temps tambe a:

Weather Underground

AWEKAS